Time;durP1;ratioP1;P1;durP2;ratioP2;P2;SDS_P1;SDS_P2;PMS_P1;PMS_P2;Temp;Humidity;BMP_temperature;BMP_pressure;BME280_temperature;BME280_humidity;BME280_pressure;Samples;Min_cycle;Max_cycle;Signal;HPM_P1;HPM_P2
2022/01/17 00:02:02;;;;;;;52.00;26.23;;;;;;;6.03;95.08;103057.97;4993446;28;20041;-66
2022/01/17 00:04:27;;;;;;;51.17;23.35;;;;;;;6.05;95.09;103065.06;4993345;28;20033;-66
2022/01/17 00:06:53;;;;;;;51.17;24.25;;;;;;;6.05;94.80;103062.44;4993627;28;20030;-65
2022/01/17 00:09:18;;;;;;;39.80;22.55;;;;;;;6.09;94.60;103077.59;4993450;28;20106;-65
2022/01/17 00:11:47;;;;;;;50.75;22.77;;;;;;;6.10;94.68;103072.41;4993234;28;20027;-65
2022/01/17 00:14:17;;;;;;;41.10;21.55;;;;;;;6.12;94.84;103069.88;4993365;28;20093;-65
2022/01/17 00:16:53;;;;;;;41.85;20.95;;;;;;;6.14;94.70;103081.41;4993317;28;20027;-66
2022/01/17 00:21:51;;;;;;;41.38;21.20;;;;;;;6.16;94.69;103080.66;4974469;28;20038;-65
2022/01/17 00:24:18;;;;;;;44.97;21.50;;;;;;;6.17;94.79;103084.25;4983119;28;20045;-65
2022/01/17 00:26:46;;;;;;;45.45;21.63;;;;;;;6.18;94.98;103094.81;4993204;28;20041;-65
2022/01/17 00:29:12;;;;;;;42.80;21.83;;;;;;;6.19;94.82;103085.22;4992768;28;20027;-66
2022/01/17 00:31:38;;;;;;;52.03;21.08;;;;;;;6.20;94.74;103076.53;4993146;28;20101;-66
2022/01/17 00:34:03;;;;;;;42.13;21.33;;;;;;;6.22;94.84;103067.06;4992938;28;20100;-65
2022/01/17 00:36:28;;;;;;;48.47;21.77;;;;;;;6.22;94.31;103067.06;4993103;28;20031;-66
2022/01/17 00:38:54;;;;;;;39.83;19.98;;;;;;;6.22;94.81;103062.72;4993034;28;20054;-66
2022/01/17 00:41:19;;;;;;;42.13;21.88;;;;;;;6.24;94.35;103070.66;4995382;28;20022;-66
2022/01/17 00:43:45;;;;;;;43.65;20.33;;;;;;;6.24;94.18;103071.56;4996351;28;20042;-66
2022/01/17 00:46:10;;;;;;;41.20;20.27;;;;;;;6.26;94.19;103067.34;4996557;28;20512;-66
2022/01/17 00:48:36;;;;;;;39.75;19.42;;;;;;;6.25;94.61;103075.09;4996440;28;20113;-66
2022/01/17 00:51:01;;;;;;;41.03;19.92;;;;;;;6.27;94.56;103070.88;4996642;28;20023;-65
2022/01/17 00:53:27;;;;;;;41.83;21.05;;;;;;;6.25;94.14;103077.72;4996306;28;20026;-66
2022/01/17 00:55:52;;;;;;;40.63;20.13;;;;;;;6.25;93.60;103081.28;4996136;28;20100;-66
2022/01/17 00:58:18;;;;;;;45.58;21.63;;;;;;;6.25;94.35;103081.28;4979015;28;20112;-65
2022/01/17 01:00:45;;;;;;;39.75;20.83;;;;;;;6.27;94.17;103092.78;4996106;28;20097;-66
2022/01/17 01:03:11;;;;;;;36.83;18.63;;;;;;;6.25;93.96;103083.91;4996157;28;20030;-66
2022/01/17 01:05:38;;;;;;;39.78;19.70;;;;;;;6.24;94.01;103092.56;4996111;28;20033;-66
2022/01/17 01:08:03;;;;;;;36.17;19.70;;;;;;;6.25;94.21;103098.72;4996264;28;20050;-65
2022/01/17 01:10:33;;;;;;;41.90;20.15;;;;;;;6.24;94.03;103099.56;4996317;28;20496;-65
2022/01/17 01:12:58;;;;;;;42.03;19.63;;;;;;;6.20;94.01;103087.94;4996061;28;20150;-65
2022/01/17 01:15:47;;;;;;;35.45;18.17;;;;;;;6.21;94.44;103101.97;4995690;28;20497;-66
2022/01/17 01:18:30;;;;;;;37.10;19.45;;;;;;;6.20;94.41;103103.69;4995941;28;20030;-65
2022/01/17 01:21:23;;;;;;;36.55;17.30;;;;;;;6.22;94.02;103101.19;4995892;28;20041;-66
2022/01/17 01:29:15;;;;;;;32.65;16.10;;;;;;;6.24;93.83;103089.94;4995948;28;20049;-65
2022/01/17 01:31:54;;;;;;;41.42;17.75;;;;;;;6.24;93.70;103081.16;4995602;28;20031;-65
2022/01/17 01:34:28;;;;;;;31.40;16.77;;;;;;;6.25;93.79;103083.91;4995486;28;20037;-66
2022/01/17 01:36:53;;;;;;;34.35;16.98;;;;;;;6.28;93.78;103085.81;4995661;28;20108;-66
2022/01/17 01:39:23;;;;;;;34.13;17.65;;;;;;;6.29;93.35;103079.75;4995490;28;20449;-66
2022/01/17 01:41:49;;;;;;;32.78;16.73;;;;;;;6.28;93.20;103094.59;4995596;28;20038;-66
2022/01/17 01:44:18;;;;;;;32.95;17.30;;;;;;;6.26;93.21;103090.97;4995551;28;20026;-65
2022/01/17 01:46:45;;;;;;;38.25;16.42;;;;;;;6.26;93.68;103111.97;4995405;28;20464;-66
2022/01/17 01:49:11;;;;;;;34.08;17.23;;;;;;;6.26;93.77;103116.31;4995274;28;20037;-66
2022/01/17 01:51:37;;;;;;;39.90;17.30;;;;;;;6.25;93.20;103120.66;4994865;28;20110;-66
2022/01/17 01:54:04;;;;;;;27.90;15.90;;;;;;;6.21;93.55;103120.34;4995116;28;20046;-66
2022/01/17 01:56:30;;;;;;;34.95;16.50;;;;;;;6.19;93.20;103112.38;4995337;28;20095;-66
2022/01/17 01:58:57;;;;;;;33.72;15.82;;;;;;;6.18;92.81;103109.66;4995134;28;20426;-65
2022/01/17 02:01:23;;;;;;;35.42;14.85;;;;;;;6.09;92.77;103102.09;4995043;28;20120;-66
2022/01/17 02:03:49;;;;;;;32.35;15.07;;;;;;;6.06;93.12;103106.25;4994997;28;20065;-66
2022/01/17 02:06:15;;;;;;;31.17;14.98;;;;;;;6.03;92.60;103120.06;4994940;28;20480;-66
2022/01/17 02:08:40;;;;;;;36.25;14.98;;;;;;;5.96;92.29;103113.50;4995233;28;20026;-65
2022/01/17 02:11:10;;;;;;;30.48;15.02;;;;;;;5.92;92.33;103116.75;4994946;28;20046;-66
2022/01/17 02:13:38;;;;;;;26.67;14.30;;;;;;;5.89;92.60;103112.97;4995079;28;20049;-66
2022/01/17 02:16:09;;;;;;;28.77;14.63;;;;;;;5.88;92.51;103108.53;4994728;28;20030;-66
2022/01/17 02:18:34;;;;;;;27.05;13.10;;;;;;;5.86;92.66;103102.25;4994865;28;20058;-66
2022/01/17 02:23:52;;;;;;;28.00;12.40;;;;;;;5.78;92.07;103109.63;4984137;28;20034;-66
2022/01/17 02:26:20;;;;;;;27.88;12.05;;;;;;;5.75;92.06;103102.47;4975457;28;20038;-66
2022/01/17 02:28:47;;;;;;;26.08;11.88;;;;;;;5.73;91.86;103096.19;4975236;28;20122;-66
2022/01/17 02:31:12;;;;;;;26.90;12.05;;;;;;;5.70;91.41;103095.13;4975694;28;20034;-66
2022/01/17 02:33:38;;;;;;;26.90;10.93;;;;;;;5.65;91.51;103094.81;4975497;28;20027;-66
2022/01/17 02:36:04;;;;;;;26.48;12.05;;;;;;;5.64;91.74;103095.59;4975304;28;20031;-66
2022/01/17 02:38:30;;;;;;;30.95;12.32;;;;;;;5.63;91.06;103109.50;4975247;28;20027;-65
2022/01/17 02:40:57;;;;;;;24.85;11.68;;;;;;;5.59;91.46;103110.13;4975228;28;20415;-66
2022/01/17 02:43:26;;;;;;;25.42;12.82;;;;;;;5.54;91.01;103108.91;4975104;28;20031;-66
2022/01/17 02:48:17;;;;;;;25.23;11.60;;;;;;;5.47;91.65;103104.94;4975263;28;20027;-66
2022/01/17 02:50:43;;;;;;;21.42;11.30;;;;;;;5.45;91.58;103106.56;4975213;28;20058;-66
2022/01/17 02:53:09;;;;;;;22.70;11.43;;;;;;;5.40;91.14;103102.72;4975069;28;20082;-66
2022/01/17 02:55:35;;;;;;;23.90;11.57;;;;;;;5.40;91.39;103105.34;4989621;28;20087;-66
2022/01/17 02:58:00;;;;;;;24.85;11.73;;;;;;;5.39;91.31;103108.75;4994597;28;20038;-66
2022/01/17 03:00:26;;;;;;;23.48;12.45;;;;;;;5.38;91.00;103117.44;4994174;28;20486;-66
2022/01/17 03:02:53;;;;;;;26.70;11.65;;;;;;;5.39;91.68;103108.75;4994048;28;20038;-65
2022/01/17 03:05:20;;;;;;;22.33;10.50;;;;;;;5.41;91.61;103103.63;4993473;28;20030;-66
2022/01/17 03:07:49;;;;;;;33.88;11.27;;;;;;;5.41;91.51;103106.25;4994169;28;20081;-66
2022/01/17 03:13:05;;;;;;;34.50;12.63;;;;;;;5.35;91.45;103096.25;4915095;29;20492;-66
2022/01/17 03:15:30;;;;;;;24.05;10.98;;;;;;;5.33;91.86;103099.59;4915237;29;20131;-66
2022/01/17 03:17:56;;;;;;;23.05;10.70;;;;;;;5.29;91.56;103098.47;4915134;29;20056;-66
2022/01/17 03:20:21;;;;;;;21.52;11.80;;;;;;;5.26;91.61;103098.25;4915105;29;20064;-66
2022/01/17 03:22:47;;;;;;;27.70;11.27;;;;;;;5.26;91.63;103090.38;4915071;29;20401;-66
2022/01/17 03:25:12;;;;;;;25.92;12.00;;;;;;;5.25;91.67;103076.38;4915094;29;20036;-65
2022/01/17 03:27:38;;;;;;;26.67;12.05;;;;;;;5.26;91.44;103093.91;4914909;29;20119;-66
2022/01/17 03:30:04;;;;;;;24.88;11.80;;;;;;;5.25;92.26;103092.09;4915051;29;20036;-65
2022/01/17 03:32:30;;;;;;;29.20;12.05;;;;;;;5.24;92.02;103097.25;4914954;29;20130;-66
2022/01/17 03:34:55;;;;;;;22.95;11.27;;;;;;;5.23;91.41;103098.97;4914854;29;20116;-66
2022/01/17 03:37:21;;;;;;;23.67;11.85;;;;;;;5.23;92.12;103104.19;4914981;29;20088;-66
2022/01/17 03:39:47;;;;;;;22.85;11.50;;;;;;;5.20;91.40;103106.59;4914982;29;20021;-66
2022/01/17 03:42:12;;;;;;;22.83;10.93;;;;;;;5.19;91.66;103107.41;4914598;29;20125;-66
2022/01/17 03:44:38;;;;;;;28.83;12.15;;;;;;;5.18;91.18;103109.91;4914900;29;20055;-66
2022/01/17 03:47:08;;;;;;;23.45;11.88;;;;;;;5.14;91.12;103111.44;4914865;29;20032;-66
2022/01/17 03:49:33;;;;;;;23.95;11.65;;;;;;;5.14;91.26;103116.69;4938886;28;20040;-66
2022/01/17 03:51:59;;;;;;;28.38;11.73;;;;;;;5.12;91.28;103114.75;4993661;28;20026;-66
2022/01/17 03:54:24;;;;;;;22.33;11.00;;;;;;;5.09;91.49;103111.91;4993474;28;20093;-66
2022/01/17 03:56:50;;;;;;;24.02;11.55;;;;;;;5.07;90.98;103109.19;4993560;28;20019;-66
2022/01/17 03:59:15;;;;;;;21.10;11.15;;;;;;;5.09;91.24;103093.56;4993579;28;20026;-66
2022/01/17 04:01:41;;;;;;;27.23;11.10;;;;;;;5.06;91.08;103106.47;4993413;28;20027;-66
2022/01/17 04:04:06;;;;;;;26.15;11.32;;;;;;;5.05;91.14;103110.78;4993452;28;20105;-66
2022/01/17 04:06:33;;;;;;;27.33;11.65;;;;;;;5.04;90.75;103108.97;4993418;28;20032;-66
2022/01/17 04:08:58;;;;;;;20.25;11.20;;;;;;;5.02;90.68;103108.88;4993586;28;20030;-65
2022/01/17 04:11:24;;;;;;;23.02;11.00;;;;;;;5.03;90.97;103112.38;4993450;28;20027;-66
2022/01/17 04:13:49;;;;;;;22.15;10.35;;;;;;;5.04;91.58;103116.81;4993338;28;20033;-66
2022/01/17 04:16:15;;;;;;;22.98;10.35;;;;;;;5.05;91.21;103117.72;4995969;28;20034;-66
2022/01/17 04:18:40;;;;;;;18.73;9.63;;;;;;;5.06;90.94;103116.94;4997576;28;20023;-66
2022/01/17 04:21:06;;;;;;;18.38;9.07;;;;;;;5.09;91.41;103118.03;4997226;28;20027;-66
2022/01/17 04:23:31;;;;;;;22.05;9.35;;;;;;;5.09;90.92;103115.41;4997354;28;20113;-65
2022/01/17 04:25:57;;;;;;;23.25;8.88;;;;;;;5.10;90.85;103124.22;4997152;28;20109;-66
2022/01/17 04:28:22;;;;;;;22.90;8.70;;;;;;;5.12;90.59;103125.22;4997292;28;20054;-66
2022/01/17 04:30:48;;;;;;;20.73;9.02;;;;;;;5.12;90.84;103133.09;4997024;28;20105;-66
2022/01/17 04:33:14;;;;;;;18.60;7.75;;;;;;;5.12;90.37;103131.38;4997008;28;20030;-66
2022/01/17 04:35:41;;;;;;;18.00;7.70;;;;;;;5.14;90.12;103136.69;4997033;28;20049;-66
2022/01/17 04:38:13;;;;;;;22.27;7.80;;;;;;;5.09;89.39;103123.28;4996967;28;20106;-66
2022/01/17 04:40:40;;;;;;;24.80;8.52;;;;;;;5.04;89.51;103119.44;4996898;28;20030;-66
2022/01/17 04:45:44;;;;;;;19.33;7.75;;;;;;;5.02;89.74;103124.59;4996801;28;20472;-66
2022/01/17 04:48:12;;;;;;;16.10;6.70;;;;;;;5.04;90.00;103119.44;4979259;28;20033;-66
2022/01/17 04:50:37;;;;;;;24.05;8.25;;;;;;;5.02;89.46;103121.06;4996752;28;20018;-66
2022/01/17 04:53:03;;;;;;;19.13;7.63;;;;;;;4.97;89.15;103118.13;4996667;28;20037;-66
2022/01/17 04:55:29;;;;;;;17.20;8.18;;;;;;;4.95;88.94;103121.41;4979054;28;20129;-66
2022/01/17 04:57:58;;;;;;;23.80;7.38;;;;;;;4.95;89.94;103119.72;4996505;28;20112;-66
2022/01/17 05:00:26;;;;;;;18.30;7.65;;;;;;;4.93;89.29;103129.19;4996603;28;20415;-66
2022/01/17 05:02:54;;;;;;;20.60;8.15;;;;;;;4.94;88.74;103138.84;4996701;28;20053;-66
2022/01/17 05:05:21;;;;;;;23.45;7.95;;;;;;;4.94;88.90;103154.56;4996464;28;20031;-66
2022/01/17 05:07:46;;;;;;;15.00;6.93;;;;;;;4.89;89.25;103141.97;4996356;28;20455;-65
2022/01/17 05:10:14;;;;;;;17.50;7.30;;;;;;;4.86;89.07;103152.22;4996433;28;20025;-66
2022/01/17 05:12:42;;;;;;;16.08;7.43;;;;;;;4.89;89.68;103152.44;4996209;28;20037;-66
2022/01/17 05:15:36;;;;;;;19.42;7.72;;;;;;;4.88;89.11;103162.00;4996191;28;20483;-66
2022/01/17 05:18:24;;;;;;;14.52;6.47;;;;;;;4.88;89.26;103159.41;4995600;28;20034;-66
2022/01/17 05:20:44;;;;;;;17.42;6.70;;;;;;;4.88;89.01;103153.22;4995331;28;20061;-66
2022/01/17 05:23:10;;;;;;;14.98;6.53;;;;;;;4.88;89.14;103159.41;4995867;28;20065;-66
2022/01/17 05:25:36;;;;;;;13.85;6.32;;;;;;;4.84;89.38;103159.97;4996048;28;20502;-66
2022/01/17 05:28:02;;;;;;;14.60;6.95;;;;;;;4.82;88.78;103158.94;4995012;28;20110;-66
2022/01/17 05:30:27;;;;;;;14.10;6.45;;;;;;;4.81;89.65;103161.47;4995932;28;20471;-66
2022/01/17 05:32:53;;;;;;;13.25;6.28;;;;;;;4.80;89.76;103154.38;4996032;28;20073;-66
2022/01/17 05:35:20;;;;;;;16.98;6.63;;;;;;;4.77;89.01;103165.56;4996103;28;20084;-66
2022/01/17 05:37:46;;;;;;;13.65;5.80;;;;;;;4.76;89.99;103167.28;4995800;28;20460;-66
2022/01/17 05:40:14;;;;;;;18.42;7.40;;;;;;;4.76;89.93;103163.75;4995949;28;20026;-66
2022/01/17 05:42:40;;;;;;;13.60;6.55;;;;;;;4.78;89.65;103173.53;4995706;28;20030;-66
2022/01/17 05:45:07;;;;;;;15.73;6.32;;;;;;;4.77;89.26;103176.03;4995651;28;20027;-66
2022/01/17 05:47:33;;;;;;;13.13;6.18;;;;;;;4.76;89.01;103172.53;4995628;28;20037;-66
2022/01/17 05:50:01;;;;;;;13.30;6.75;;;;;;;4.68;89.66;103171.06;4995868;28;20018;-65
2022/01/17 05:52:27;;;;;;;15.50;6.93;;;;;;;4.66;89.77;103167.41;4995746;28;20038;-66
2022/01/17 05:54:52;;;;;;;15.55;6.80;;;;;;;4.68;90.57;103168.44;4995411;28;20105;-66
2022/01/17 05:57:18;;;;;;;17.52;7.95;;;;;;;4.66;90.25;103156.94;4995514;28;20057;-66
2022/01/17 05:59:44;;;;;;;21.17;8.05;;;;;;;4.68;89.92;103165.81;4977972;28;20034;-66
2022/01/17 06:02:10;;;;;;;16.38;7.30;;;;;;;4.67;90.20;103171.88;4995401;28;20069;-65
2022/01/17 06:04:35;;;;;;;16.38;7.55;;;;;;;4.66;90.65;103180.50;4995311;28;20041;-65
2022/01/17 06:07:02;;;;;;;17.60;8.05;;;;;;;4.70;89.87;103186.88;4995594;28;20045;-66
2022/01/17 06:09:27;;;;;;;19.42;8.25;;;;;;;4.72;90.97;103174.81;4995194;28;20035;-66
2022/01/17 06:11:53;;;;;;;14.02;8.35;;;;;;;4.74;90.43;103173.19;4995457;28;20022;-66
2022/01/17 06:14:19;;;;;;;19.75;9.25;;;;;;;4.76;90.61;103175.13;4995085;28;20037;-66
2022/01/17 06:16:45;;;;;;;20.60;9.23;;;;;;;4.75;89.83;103189.03;4995259;28;20057;-66
2022/01/17 06:19:11;;;;;;;20.35;8.98;;;;;;;4.72;89.87;103191.44;4995132;28;20030;-66
2022/01/17 06:21:37;;;;;;;25.45;10.25;;;;;;;4.71;90.57;103183.44;4995037;28;20026;-66
2022/01/17 06:24:04;;;;;;;21.42;9.48;;;;;;;4.69;90.70;103177.19;4994944;28;20030;-66
2022/01/17 06:26:30;;;;;;;15.75;9.75;;;;;;;4.68;90.27;103178.00;4995191;28;20034;-66
2022/01/17 06:28:55;;;;;;;20.02;8.98;;;;;;;4.68;90.39;103180.63;4994941;28;20031;-66
2022/01/17 06:31:21;;;;;;;22.52;10.77;;;;;;;4.67;89.96;103187.56;4994882;28;20029;-66
2022/01/17 06:33:46;;;;;;;19.92;10.98;;;;;;;4.63;89.66;103182.00;4994921;28;20022;-65
2022/01/17 06:36:13;;;;;;;19.50;10.57;;;;;;;4.63;90.08;103185.53;4977407;28;20023;-65
2022/01/17 06:38:38;;;;;;;21.38;11.30;;;;;;;4.60;89.89;103194.88;4994650;28;20120;-65
2022/01/17 06:41:04;;;;;;;24.70;11.20;;;;;;;4.60;89.71;103193.16;4994716;28;20456;-66
2022/01/17 06:43:29;;;;;;;20.70;11.15;;;;;;;4.56;90.12;103201.59;4994511;28;20109;-66
2022/01/17 06:45:54;;;;;;;22.45;10.88;;;;;;;4.56;90.98;103211.16;4994600;28;20499;-65
2022/01/17 06:48:20;;;;;;;22.90;11.25;;;;;;;4.55;91.33;103191.91;4994508;28;20105;-65
2022/01/17 06:50:45;;;;;;;21.23;11.88;;;;;;;4.55;91.10;103191.91;4994484;28;20484;-65
2022/01/17 06:53:10;;;;;;;21.15;11.52;;;;;;;4.58;91.60;103193.81;4994475;28;20026;-66
2022/01/17 06:55:36;;;;;;;22.05;11.95;;;;;;;4.58;90.92;103199.06;4994173;28;20438;-66
2022/01/17 06:58:01;;;;;;;27.00;13.25;;;;;;;4.59;91.10;103216.63;4994312;28;20077;-66
2022/01/17 07:00:27;;;;;;;21.60;11.52;;;;;;;4.61;91.67;103223.78;4994356;28;20460;-66
2022/01/17 07:02:52;;;;;;;25.58;11.55;;;;;;;4.63;90.39;103240.53;4994214;28;20026;-66
2022/01/17 07:05:18;;;;;;;24.38;11.05;;;;;;;4.62;91.12;103238.69;4994241;28;20027;-66
2022/01/17 07:07:44;;;;;;;24.98;11.30;;;;;;;4.61;91.01;103238.56;4994311;28;20030;-65
2022/01/17 07:10:09;;;;;;;23.90;11.70;;;;;;;4.59;90.71;103261.13;4994353;28;20085;-66
2022/01/17 07:12:37;;;;;;;26.17;11.77;;;;;;;4.56;90.48;103250.44;4994110;28;20030;-66
2022/01/17 07:15:07;;;;;;;22.20;11.68;;;;;;;4.52;91.03;103231.88;4994059;28;20051;-65
2022/01/17 07:17:33;;;;;;;22.75;12.95;;;;;;;4.45;91.24;103226.06;4994011;28;20065;-66
2022/01/17 07:19:59;;;;;;;23.73;12.05;;;;;;;4.43;91.05;103210.25;4993927;28;20023;-66
2022/01/17 07:22:24;;;;;;;30.85;13.07;;;;;;;4.42;91.14;103208.44;4993884;28;20041;-65
2022/01/17 07:24:50;;;;;;;25.48;12.55;;;;;;;4.40;91.37;103186.44;4993894;28;20364;-66
2022/01/17 07:27:16;;;;;;;27.25;14.43;;;;;;;4.39;91.11;103194.22;4993827;28;20029;-65
2022/01/17 07:29:42;;;;;;;28.08;13.40;;;;;;;4.36;91.05;103189.66;4993818;28;20018;-66
2022/01/17 07:32:08;;;;;;;29.77;13.25;;;;;;;4.39;91.89;103205.59;4993944;28;20182;-66
2022/01/17 07:34:34;;;;;;;24.75;12.57;;;;;;;4.42;91.42;103213.66;4993834;28;20015;-66
2022/01/17 07:37:00;;;;;;;28.55;13.38;;;;;;;4.40;91.64;103212.63;4993860;28;20096;-66
2022/01/17 07:39:26;;;;;;;28.15;13.85;;;;;;;4.37;90.88;103219.34;4993750;28;20034;-66
2022/01/17 07:41:52;;;;;;;26.05;13.25;;;;;;;4.37;90.96;103225.50;4993568;28;20049;-66
2022/01/17 07:44:19;;;;;;;23.88;12.90;;;;;;;4.41;91.00;103231.84;4993951;28;20488;-66
2022/01/17 07:46:50;;;;;;;25.67;13.27;;;;;;;4.43;90.71;103230.28;4993830;28;20482;-66
2022/01/17 07:49:21;;;;;;;21.88;13.52;;;;;;;4.42;91.43;103238.94;4993963;28;20038;-66
2022/01/17 07:52:03;;;;;;;31.30;14.05;;;;;;;4.45;91.55;103239.16;4999833;28;20033;-66
2022/01/17 07:54:32;;;;;;;28.98;12.63;;;;;;;4.46;91.70;103254.09;4999887;28;20057;-65
2022/01/17 07:56:59;;;;;;;26.30;13.07;;;;;;;4.49;91.70;103251.66;5000091;28;20038;-66
2022/01/17 07:59:25;;;;;;;24.23;12.85;;;;;;;4.50;91.17;103243.94;5000163;28;20105;-66
2022/01/17 08:01:50;;;;;;;25.88;12.73;;;;;;;4.51;91.51;103253.63;5000358;28;20379;-66
2022/01/17 08:04:16;;;;;;;24.25;12.70;;;;;;;4.54;91.50;103258.19;5000310;28;20026;-66
2022/01/17 08:06:42;;;;;;;26.08;12.57;;;;;;;4.58;90.95;103270.66;5000126;28;20113;-66
2022/01/17 08:09:20;;;;;;;29.25;13.23;;;;;;;4.62;92.07;103270.09;4999939;28;20483;-66
2022/01/17 08:11:46;;;;;;;30.02;13.13;;;;;;;4.64;91.36;103281.63;4999963;28;20480;-65
2022/01/17 08:14:11;;;;;;;23.85;12.32;;;;;;;4.63;92.14;103269.31;5000243;28;20037;-65
2022/01/17 08:16:37;;;;;;;26.90;12.60;;;;;;;4.69;91.83;103261.00;4999952;28;20085;-66
2022/01/17 08:19:03;;;;;;;22.30;13.30;;;;;;;4.74;92.43;103264.88;4999979;28;20443;-65
2022/01/17 08:21:28;;;;;;;29.05;13.43;;;;;;;4.82;92.05;103270.66;4999829;28;20100;-66
2022/01/17 08:23:54;;;;;;;27.23;13.13;;;;;;;4.88;92.36;103273.72;5000072;28;20065;-66
2022/01/17 08:26:21;;;;;;;26.35;13.50;;;;;;;4.94;91.58;103277.72;5000225;28;20026;-66
2022/01/17 08:28:47;;;;;;;27.85;13.88;;;;;;;4.96;92.24;103265.63;4999958;28;20076;-65
2022/01/17 08:31:14;;;;;;;26.30;13.48;;;;;;;5.00;92.03;103264.13;4999853;28;20023;-65
2022/01/17 08:33:41;;;;;;;29.10;14.00;;;;;;;5.02;91.99;103279.19;4999861;28;20027;-65
2022/01/17 08:36:07;;;;;;;25.98;13.00;;;;;;;5.03;92.53;103283.63;4999758;28;20101;-66
2022/01/17 08:38:36;;;;;;;24.67;13.80;;;;;;;5.08;92.35;103286.56;4999618;28;20109;-66
2022/01/17 08:41:02;;;;;;;26.20;14.00;;;;;;;5.13;91.94;103282.56;4999787;28;20072;-66
2022/01/17 08:43:27;;;;;;;27.42;14.38;;;;;;;5.16;92.18;103276.63;4999648;28;20065;-66
2022/01/17 08:45:53;;;;;;;30.23;15.00;;;;;;;5.17;92.46;103261.00;4999769;28;20052;-65
2022/01/17 08:48:19;;;;;;;23.20;13.20;;;;;;;5.23;92.26;103255.31;4999655;28;20035;-65
2022/01/17 08:50:47;;;;;;;26.38;13.82;;;;;;;5.26;92.11;103271.25;4999788;28;20038;-66
2022/01/17 08:53:14;;;;;;;32.25;14.88;;;;;;;5.27;92.11;103263.50;4999502;28;20030;-66
2022/01/17 08:55:42;;;;;;;26.45;13.20;;;;;;;5.30;92.48;103275.91;4999477;28;20054;-66
2022/01/17 08:58:10;;;;;;;25.98;13.13;;;;;;;5.32;91.94;103268.16;4999638;28;20150;-66
2022/01/17 09:00:36;;;;;;;27.77;14.48;;;;;;;5.32;92.28;103271.69;4999946;28;20077;-66
2022/01/17 09:03:02;;;;;;;29.92;14.05;;;;;;;5.34;92.45;103270.06;4996440;28;20428;-66
2022/01/17 09:05:29;;;;;;;26.17;14.13;;;;;;;5.35;92.59;103277.13;4996478;28;20026;-66
2022/01/17 09:07:54;;;;;;;28.73;13.73;;;;;;;5.37;92.53;103282.50;4996325;28;20128;-66
2022/01/17 09:10:20;;;;;;;27.52;13.95;;;;;;;5.39;92.15;103291.38;4996592;28;20483;-66
2022/01/17 09:12:45;;;;;;;25.23;13.27;;;;;;;5.42;92.32;103283.72;4996386;28;20034;-66
2022/01/17 09:15:11;;;;;;;28.17;12.75;;;;;;;5.45;92.69;103300.59;4996538;28;20030;-66
2022/01/17 09:17:37;;;;;;;26.08;13.15;;;;;;;5.49;92.64;103305.25;4996305;28;20028;-66
2022/01/17 09:20:04;;;;;;;27.63;13.27;;;;;;;5.53;92.42;103315.16;4996203;28;20105;-67
2022/01/17 09:22:29;;;;;;;24.92;13.10;;;;;;;5.58;92.61;103317.22;4995898;28;20125;-63
2022/01/17 09:24:55;;;;;;;27.73;13.23;;;;;;;5.64;92.11;103329.03;4996225;28;20054;-62
2022/01/17 09:27:21;;;;;;;25.77;12.35;;;;;;;5.68;92.18;103333.69;4996295;28;20369;-62
2022/01/17 09:29:47;;;;;;;25.52;13.18;;;;;;;5.70;91.99;103318.97;4995982;28;20030;-62
2022/01/17 09:32:14;;;;;;;29.08;12.75;;;;;;;5.78;92.08;103324.75;4995925;28;20097;-62
2022/01/17 09:34:41;;;;;;;22.65;12.75;;;;;;;5.84;91.81;103319.03;4995863;28;20030;-62
2022/01/17 09:37:09;;;;;;;25.27;12.30;;;;;;;5.88;91.95;103329.84;4995756;28;20034;-62
2022/01/17 09:39:35;;;;;;;27.58;12.18;;;;;;;5.94;91.89;103327.66;4995889;28;20026;-62
2022/01/17 09:42:01;;;;;;;20.25;11.35;;;;;;;5.98;91.59;103311.34;4995746;28;20464;-62
2022/01/17 09:44:26;;;;;;;26.38;10.85;;;;;;;5.99;91.24;103317.50;4995818;28;20422;-62
2022/01/17 09:46:56;;;;;;;25.10;11.23;;;;;;;6.00;91.09;103325.50;4995821;28;20109;-62
2022/01/17 09:53:14;;;;;;;21.75;10.52;;;;;;;6.02;91.29;103336.97;4995891;28;20041;-62
2022/01/17 09:55:39;;;;;;;24.25;10.23;;;;;;;6.03;91.33;103346.66;4995498;28;20491;-62
2022/01/17 09:58:08;;;;;;;23.60;9.88;;;;;;;6.06;91.13;103352.97;4995391;28;20157;-63
2022/01/17 10:00:39;;;;;;;25.25;9.98;;;;;;;6.07;90.82;103365.28;4995488;28;20034;-62
2022/01/17 10:03:07;;;;;;;24.75;9.48;;;;;;;6.09;91.34;103376.81;4995401;28;20026;-62
2022/01/17 10:05:34;;;;;;;22.58;10.68;;;;;;;6.10;91.45;103355.00;4995462;28;20049;-63
2022/01/17 10:08:07;;;;;;;28.00;9.82;;;;;;;6.12;91.08;103362.16;4995451;28;20110;-62
2022/01/17 10:10:47;;;;;;;27.75;9.90;;;;;;;6.15;90.87;103366.72;4995497;28;20032;-61
2022/01/17 10:13:30;;;;;;;21.17;8.40;;;;;;;6.19;90.85;103353.00;4994670;28;20185;-60
2022/01/17 10:16:08;;;;;;;25.58;8.05;;;;;;;6.21;90.97;103356.63;4995335;28;20095;-61
2022/01/17 10:18:35;;;;;;;29.05;9.05;;;;;;;6.22;90.24;103355.84;4995133;28;20061;-61
2022/01/17 10:21:14;;;;;;;19.40;7.75;;;;;;;6.24;90.76;103351.59;4995044;28;20025;-60
2022/01/17 10:23:56;;;;;;;20.05;7.90;;;;;;;6.25;90.30;103346.47;4995126;28;20054;-60
2022/01/17 10:37:12;;;;;;;28.58;8.10;;;;;;;6.32;90.50;103381.91;4935212;29;20034;-63
2022/01/17 10:39:51;;;;;;;21.83;7.50;;;;;;;6.36;90.13;103369.91;4934856;29;20114;-63
2022/01/17 10:42:27;;;;;;;22.83;8.00;;;;;;;6.39;90.13;103372.75;4934547;29;20031;-63
2022/01/17 10:44:54;;;;;;;19.33;7.65;;;;;;;6.39;89.98;103384.16;4934615;29;20052;-63
2022/01/17 10:47:26;;;;;;;26.10;6.85;;;;;;;6.43;90.35;103382.66;4934552;29;20422;-63
2022/01/17 10:49:58;;;;;;;20.67;7.13;;;;;;;6.46;89.48;103386.38;4934483;29;20035;-63
2022/01/17 10:52:29;;;;;;;18.55;6.65;;;;;;;6.53;89.73;103374.59;4934657;29;20131;-64
2022/01/17 10:55:14;;;;;;;17.52;6.28;;;;;;;6.60;90.09;103386.44;4916466;29;20152;-64
2022/01/17 10:57:43;;;;;;;25.45;6.82;;;;;;;6.65;89.23;103393.81;4915338;29;20083;-64
2022/01/17 11:00:29;;;;;;;20.25;5.80;;;;;;;6.70;89.00;103383.63;4915481;29;20036;-63
2022/01/17 11:02:57;;;;;;;23.55;6.35;;;;;;;6.75;89.35;103398.88;4915383;29;20028;-63
2022/01/17 11:05:23;;;;;;;30.02;6.00;;;;;;;6.78;89.13;103399.09;4914981;29;20032;-64
2022/01/17 11:07:56;;;;;;;23.67;6.13;;;;;;;6.84;88.04;103403.84;4915331;29;20111;-63
2022/01/17 11:10:28;;;;;;;20.92;6.47;;;;;;;6.86;88.80;103402.22;4918030;29;20074;-63
2022/01/17 11:12:56;;;;;;;18.38;5.60;;;;;;;6.90;88.10;103413.88;4954349;29;20050;-63
2022/01/17 11:15:23;;;;;;;17.70;6.47;;;;;;;6.94;88.88;103406.28;4955577;28;20053;-63
2022/01/17 11:17:53;;;;;;;28.42;5.47;;;;;;;6.95;87.36;103407.19;4955602;28;20031;-63
2022/01/17 11:20:21;;;;;;;19.27;5.65;;;;;;;6.98;87.73;103405.69;4955203;28;20035;-62
2022/01/17 11:22:49;;;;;;;25.25;5.63;;;;;;;7.02;88.57;103407.72;4954008;29;20039;-63
2022/01/17 11:25:18;;;;;;;21.25;5.22;;;;;;;7.03;87.15;103391.13;4954516;28;20536;-63
2022/01/17 11:27:45;;;;;;;30.10;6.15;;;;;;;7.03;87.81;103396.38;4955322;28;20110;-62
2022/01/17 11:30:12;;;;;;;20.13;5.05;;;;;;;7.08;87.81;103393.16;4955212;28;20047;-63
2022/01/17 11:32:39;;;;;;;31.67;5.63;;;;;;;7.10;87.93;103376.63;4922170;29;20058;-63
2022/01/17 11:35:06;;;;;;;21.80;5.35;;;;;;;7.14;87.48;103377.75;4955046;28;20384;-64
2022/01/17 11:37:37;;;;;;;22.60;4.82;;;;;;;7.17;86.63;103370.06;4955170;28;20035;-64
2022/01/17 11:40:06;;;;;;;22.85;4.82;;;;;;;7.18;87.57;103377.16;4955188;28;20032;-63
2022/01/17 11:42:37;;;;;;;20.40;4.90;;;;;;;7.19;87.36;103377.22;4954932;28;20476;-63
2022/01/17 11:45:23;;;;;;;19.63;5.05;;;;;;;7.23;87.22;103386.25;4955010;28;20114;-61
2022/01/17 11:47:51;;;;;;;20.90;4.63;;;;;;;7.26;87.90;103399.59;4954714;29;20078;-62
2022/01/17 11:50:30;;;;;;;26.70;4.70;;;;;;;7.32;86.93;103399.97;4955080;28;20077;-62
2022/01/17 11:53:16;;;;;;;26.23;5.03;;;;;;;7.35;86.88;103415.06;4955018;28;20130;-62
2022/01/17 11:55:44;;;;;;;27.42;4.93;;;;;;;7.35;87.01;103413.34;4952172;28;20104;-64